Minot Air Force Base, ND (58704)

12:49 AM CDT on September 05, 2015 (GMT -0500)
APRSWXNET | | Change Station
CLOSE
Current Station
Personal Weather Station
Location: Glenburn, ND
Elevation: 1574 ft
Nearby Weather Stations

Elev 1574 ft 48.45 °N, 101.22 °W | Updated 30 minutes ago

Overcast
Overcast
60 °F
Feels Like 60 °F
N
8
Wind Variable Wind from North
Gusts 14.0 mph

Today
High -- | Low -- °F
--% Chance of Precip.
Yesterday
High -- | Low -- °F
Precip. -- in
7:07 AM 8:19 PM
Waning Gibbous, 52% visible
Pressure 29.90 in
Visibility 6.0 miles
Clouds Overcast 300 ft
Dew Point 59 °F
Humidity 97%
Rainfall in
Snow Depth Not available.
UV 0 out of 12
Pollen 9.60 out of 12
Air Quality Not available.
Flu Activity Not available.
METAR KMIB 050458Z AUTO 36009KT 6SM R29/5000FT BR OVC003 16/16 A2989 RMK AO2 DZE31DZB34E51 SLP124 P0000 T01580158 $
Pressure 29.90 in
Visibility 6.0 miles
Clouds Overcast 300 ft
Dew Point 59 °F
Humidity 97%
Rainfall in
Snow Depth Not available.
UV 0 out of 12
Pollen 9.60 out of 12
Air Quality Not available.
Flu Activity Not available.
METAR KMIB 050458Z AUTO 36009KT 6SM R29/5000FT BR OVC003 16/16 A2989 RMK AO2 DZE31DZB34E51 SLP124 P0000 T01580158 $

10-Day Weather Forecast

×

Almanac

Astronomy

Sep. 05, 2015 Rise Set
Actual Time
Civil Twilight
Nautical Twilight
Astronomical Twilight
Moon
Length of Visible Light
Length of Day
Tomorrow will be .
, % of the Moon is Illuminated

Today's Extremes

State Highs State Lows

Community

WunderPhotos

Upload Photos

1,852,428 photos uploaded!

WunderBlogs® & News

Nearby

Air Quality

  Air Quality AQ Index Pollutant
Not available.

Snow Depth

Station Depth Elevation

Earthquake Activity

City Distance Mag. Time & Date
Minimum magnitude displayed is 2.5.

Coastal Water Temperatures

Place Temperature

Stations

Nearby Weather Stations

Station Location Temp. Windchill Dew Point Humidity Wind Precip. Elev Updated Type